Preview of NWS' New Version of Forecast
This preview is not operational and should not be used for support decisions.

Terminal Aerodrome Forecast (TAF)

Issued by National Weather Service (NWS)

                            
000
FTUS45 KBOI 170520
TAFMYL
TAF
KMYL 170520Z 1706/1806 VRB03KT P6SM BKN100
     FM172100 25009KT P6SM SCT200
     FM180200 VRB03KT P6SM SCT200=